createdAt,value
2023-02-27T00:00:22.179Z,70.07
2023-02-27T00:02:49.865Z,69.74
2023-02-27T00:05:16.519Z,69.72
2023-02-27T00:07:42.909Z,69.13
2023-02-27T00:10:09.853Z,69.27
2023-02-27T00:12:37.781Z,70.03
2023-02-27T00:15:05.292Z,69.41
2023-02-27T00:17:31.821Z,69.49
2023-02-27T00:19:58.112Z,69.37
2023-02-27T00:22:24.420Z,69.13
2023-02-27T00:24:50.778Z,69.12
2023-02-27T00:27:17.122Z,69.73
2023-02-27T00:29:43.430Z,69.70
2023-02-27T00:32:09.875Z,70.37
2023-02-27T00:34:36.300Z,70.39
2023-02-27T00:37:02.789Z,70.26
2023-02-27T00:39:29.105Z,70.35
2023-02-27T00:41:55.394Z,69.72
2023-02-27T00:44:21.716Z,70.05
2023-02-27T00:46:48.087Z,69.79
2023-02-27T00:49:14.476Z,70.24
2023-02-27T00:51:40.794Z,69.96
2023-02-27T00:54:07.116Z,69.58
2023-02-27T00:56:34.643Z,69.27
2023-02-27T00:59:00.956Z,69.79
2023-02-27T01:01:27.619Z,69.74
2023-02-27T01:03:54.110Z,69.56
2023-02-27T01:06:20.456Z,70.16
2023-02-27T01:08:46.825Z,69.83
2023-02-27T01:11:13.139Z,70.31
2023-02-27T01:13:39.520Z,70.42
2023-02-27T01:16:06.151Z,70.85
2023-02-27T01:18:32.485Z,70.79
2023-02-27T01:20:58.797Z,71.64
2023-02-27T01:23:25.110Z,71.44
2023-02-27T01:25:51.480Z,71.78
2023-02-27T01:28:17.796Z,71.93
2023-02-27T01:30:44.409Z,71.75
2023-02-27T01:33:10.756Z,71.93
2023-02-27T01:35:37.036Z,72.10
2023-02-27T01:38:03.367Z,72.08
2023-02-27T01:40:29.689Z,71.82
2023-02-27T01:42:55.993Z,71.23
2023-02-27T01:45:22.271Z,70.89
2023-02-27T01:47:52.201Z,70.98
2023-02-27T01:50:19.423Z,71.06
2023-02-27T01:52:48.977Z,71.35
2023-02-27T01:55:15.807Z,71.01
2023-02-27T01:57:45.217Z,70.72
2023-02-27T02:00:12.294Z,70.66
2023-02-27T02:02:40.654Z,70.21
2023-02-27T02:05:07.367Z,70.82
2023-02-27T02:07:35.680Z,70.42
2023-02-27T02:10:02.406Z,70.43
2023-02-27T02:12:30.280Z,70.70
2023-02-27T02:14:56.585Z,70.47
2023-02-27T02:17:41.157Z,71.01
2023-02-27T02:20:26.152Z,70.31
2023-02-27T02:23:06.808Z,70.06
2023-02-27T02:25:36.011Z,70.71
2023-02-27T02:28:05.326Z,70.19
2023-02-27T02:30:31.673Z,70.11
2023-02-27T02:33:24.355Z,70.36
2023-02-27T02:35:53.671Z,70.68
2023-02-27T02:38:28.757Z,70.66
2023-02-27T02:41:13.812Z,71.15
2023-02-27T02:44:02.162Z,70.76
2023-02-27T02:46:39.024Z,70.93
2023-02-27T02:49:11.388Z,70.57
2023-02-27T02:51:37.701Z,70.89
2023-02-27T02:54:12.496Z,70.77
2023-02-27T02:56:41.424Z,70.67
2023-02-27T02:59:12.892Z,70.80
2023-02-27T03:01:42.484Z,70.99
2023-02-27T03:04:14.849Z,71.15
2023-02-27T03:06:44.946Z,70.86
2023-02-27T03:09:11.254Z,70.74
2023-02-27T03:11:40.632Z,70.47
2023-02-27T03:14:10.675Z,70.81
2023-02-27T03:16:45.634Z,70.39
2023-02-27T03:19:18.540Z,71.28
2023-02-27T03:21:44.832Z,71.49
2023-02-27T03:24:23.047Z,70.67
2023-02-27T03:26:51.866Z,70.77
2023-02-27T03:29:26.362Z,70.64
2023-02-27T03:31:53.215Z,70.93
2023-02-27T03:34:26.061Z,71.61
2023-02-27T03:36:55.423Z,71.44
2023-02-27T03:39:35.971Z,70.81
2023-02-27T03:42:14.644Z,70.77
2023-02-27T03:44:43.972Z,70.15
2023-02-27T03:47:10.281Z,69.92
2023-02-27T03:49:36.618Z,70.86
2023-02-27T03:52:03.833Z,70.47
2023-02-27T03:54:33.657Z,70.40
2023-02-27T03:57:04.585Z,70.31
2023-02-27T03:59:31.785Z,71.02
2023-02-27T04:01:58.695Z,71.04
2023-02-27T04:04:27.662Z,71.07
2023-02-27T04:07:16.118Z,70.96
2023-02-27T04:10:00.940Z,71.17
2023-02-27T04:12:27.245Z,71.36
2023-02-27T04:14:59.712Z,71.16
2023-02-27T04:17:26.622Z,71.18
2023-02-27T04:20:13.537Z,71.50
2023-02-27T04:22:55.627Z,70.57
2023-02-27T04:25:24.872Z,70.73
2023-02-27T04:27:54.249Z,70.96
2023-02-27T04:30:26.243Z,70.97
2023-02-27T04:33:09.392Z,71.08
2023-02-27T04:35:42.777Z,70.50
2023-02-27T04:38:17.974Z,70.62
2023-02-27T04:41:04.587Z,70.60
2023-02-27T04:43:31.755Z,69.96
2023-02-27T04:45:59.813Z,70.02
2023-02-27T04:48:28.276Z,69.96
2023-02-27T04:51:00.176Z,69.97
2023-02-27T04:53:31.247Z,70.21
2023-02-27T04:56:02.309Z,69.83
2023-02-27T04:58:32.276Z,69.65
2023-02-27T05:01:01.177Z,69.81
2023-02-27T05:03:31.849Z,69.97
2023-02-27T05:06:00.117Z,70.00
2023-02-27T05:08:26.400Z,70.47
2023-02-27T05:10:58.626Z,70.05
2023-02-27T05:13:28.369Z,70.33
2023-02-27T05:15:58.377Z,69.86
2023-02-27T05:18:25.243Z,69.48
2023-02-27T05:20:56.145Z,69.71
2023-02-27T05:23:30.370Z,70.10
2023-02-27T05:26:13.401Z,69.95
2023-02-27T05:28:59.966Z,69.73
2023-02-27T05:31:32.627Z,70.34
2023-02-27T05:34:12.282Z,70.20
2023-02-27T05:36:41.995Z,70.33
2023-02-27T05:39:09.952Z,70.57
2023-02-27T05:41:42.762Z,70.02
2023-02-27T05:44:14.761Z,70.85
2023-02-27T05:47:00.690Z,70.65
2023-02-27T05:49:30.163Z,70.59
2023-02-27T05:51:58.194Z,71.05
2023-02-27T05:54:29.391Z,71.08
2023-02-27T05:56:57.406Z,70.46
2023-02-27T05:59:26.771Z,70.47
2023-02-27T06:01:53.178Z,69.97
2023-02-27T06:04:19.734Z,70.12
2023-02-27T06:06:46.121Z,71.16
2023-02-27T06:09:12.551Z,71.63
2023-02-27T06:11:38.874Z,72.10
2023-02-27T06:14:05.172Z,71.36
2023-02-27T06:16:31.563Z,71.26
2023-02-27T06:18:57.944Z,70.71
2023-02-27T06:21:24.273Z,71.27
2023-02-27T06:23:50.665Z,70.77
2023-02-27T06:26:17.548Z,70.85
2023-02-27T06:28:43.826Z,70.78
2023-02-27T06:31:10.216Z,70.53
2023-02-27T06:33:36.580Z,70.73
2023-02-27T06:36:02.951Z,70.81
2023-02-27T06:38:29.285Z,70.75
2023-02-27T06:40:55.568Z,70.94
2023-02-27T06:43:24.890Z,72.41
2023-02-27T06:45:53.857Z,73.19
2023-02-27T06:48:20.187Z,72.33
2023-02-27T06:50:50.521Z,72.65
2023-02-27T06:53:16.872Z,72.48
2023-02-27T06:55:43.225Z,73.07
2023-02-27T06:58:09.540Z,72.62
2023-02-27T07:00:35.856Z,73.54
2023-02-27T07:03:04.388Z,74.26
2023-02-27T07:05:31.354Z,73.51
2023-02-27T07:07:58.703Z,73.34
2023-02-27T07:10:25.685Z,73.32
2023-02-27T07:12:52.013Z,74.33
2023-02-27T07:15:18.367Z,75.35
2023-02-27T07:17:44.682Z,75.00
2023-02-27T07:20:11.590Z,75.50
2023-02-27T07:22:38.793Z,75.28
2023-02-27T07:25:05.373Z,75.26
2023-02-27T07:27:31.952Z,75.72
2023-02-27T07:29:58.377Z,75.58
2023-02-27T07:32:24.765Z,76.01
2023-02-27T07:34:51.093Z,75.84
2023-02-27T07:37:17.444Z,74.97
2023-02-27T07:39:44.910Z,75.35
2023-02-27T07:42:11.504Z,75.05
2023-02-27T07:44:37.839Z,75.04
2023-02-27T07:47:04.183Z,75.22
2023-02-27T07:49:30.521Z,75.04
2023-02-27T07:51:56.946Z,74.56
2023-02-27T07:54:23.321Z,75.42
2023-02-27T07:56:49.649Z,74.94
2023-02-27T07:59:15.994Z,75.43
2023-02-27T08:01:42.331Z,75.66
2023-02-27T08:04:08.739Z,74.99
2023-02-27T08:06:35.061Z,74.59
2023-02-27T08:09:01.523Z,74.75
2023-02-27T08:11:28.165Z,74.89
2023-02-27T08:14:02.572Z,74.77
2023-02-27T08:16:30.800Z,75.36
2023-02-27T08:18:57.610Z,75.08
2023-02-27T08:21:23.948Z,75.72
2023-02-27T08:23:50.276Z,75.06
2023-02-27T08:26:16.595Z,74.95
2023-02-27T08:28:43.151Z,74.28
2023-02-27T08:31:09.545Z,73.97
2023-02-27T08:33:36.006Z,73.80
2023-02-27T08:36:02.583Z,73.28
2023-02-27T08:38:28.944Z,73.05
2023-02-27T08:40:55.333Z,72.66
2023-02-27T08:43:22.276Z,72.33
2023-02-27T08:45:49.206Z,72.43
2023-02-27T08:48:17.203Z,72.39
2023-02-27T08:50:43.952Z,72.33
2023-02-27T08:53:10.779Z,71.79
2023-02-27T08:55:37.256Z,72.72
2023-02-27T08:58:03.550Z,72.67
2023-02-27T09:00:30.862Z,73.47
2023-02-27T09:02:57.277Z,73.76
2023-02-27T09:05:23.627Z,72.94
2023-02-27T09:07:50.057Z,72.82
2023-02-27T09:10:17.756Z,72.47
2023-02-27T09:12:44.280Z,71.87
2023-02-27T09:15:11.423Z,72.53
2023-02-27T09:17:38.015Z,72.84
2023-02-27T09:20:04.935Z,72.54
2023-02-27T09:22:31.276Z,72.50
2023-02-27T09:24:57.598Z,70.90
2023-02-27T09:27:24.163Z,71.50
2023-02-27T09:29:55.404Z,71.23
2023-02-27T09:32:25.434Z,71.22
2023-02-27T09:34:51.861Z,70.75
2023-02-27T09:37:21.328Z,71.57
2023-02-27T09:39:47.806Z,71.76
2023-02-27T09:42:22.995Z,72.10
2023-02-27T09:44:50.755Z,72.15
2023-02-27T09:47:23.424Z,71.56
2023-02-27T09:49:55.326Z,71.62
2023-02-27T09:52:21.626Z,71.38
2023-02-27T09:54:48.610Z,71.37
2023-02-27T09:57:24.493Z,71.55
2023-02-27T09:59:53.271Z,72.07
2023-02-27T10:02:29.739Z,72.40
2023-02-27T10:05:14.572Z,71.75
2023-02-27T10:08:01.018Z,71.53
2023-02-27T10:10:36.322Z,71.49
2023-02-27T10:13:14.828Z,70.32
2023-02-27T10:15:43.623Z,70.66
2023-02-27T10:18:28.430Z,69.12
2023-02-27T10:21:02.481Z,68.44
2023-02-27T10:23:44.000Z,69.13
2023-02-27T10:26:26.300Z,69.71
2023-02-27T10:28:52.682Z,70.31
2023-02-27T10:31:24.414Z,70.50
2023-02-27T10:33:51.788Z,70.92
2023-02-27T10:36:32.615Z,70.43
2023-02-27T10:39:03.519Z,70.92
2023-02-27T10:41:30.774Z,70.21
2023-02-27T10:43:58.339Z,69.68
2023-02-27T10:46:27.380Z,70.58
2023-02-27T10:48:54.240Z,71.50
2023-02-27T10:51:28.377Z,71.18
2023-02-27T10:54:13.975Z,70.71
2023-02-27T10:56:40.615Z,70.03
2023-02-27T10:59:08.129Z,70.45
2023-02-27T11:01:45.229Z,70.35
2023-02-27T11:04:12.455Z,70.16
2023-02-27T11:06:38.932Z,68.30
2023-02-27T11:09:23.173Z,68.77
2023-02-27T11:11:50.258Z,69.15
2023-02-27T11:14:19.312Z,69.84
2023-02-27T11:16:50.457Z,70.23
2023-02-27T11:19:25.791Z,68.09
2023-02-27T11:22:04.455Z,66.85
2023-02-27T11:24:31.082Z,67.67
2023-02-27T11:27:03.703Z,68.45
2023-02-27T11:29:30.087Z,68.20
2023-02-27T11:32:13.394Z,68.41
2023-02-27T11:34:46.326Z,69.08
2023-02-27T11:37:18.829Z,69.39
2023-02-27T11:39:49.426Z,68.49
2023-02-27T11:42:17.831Z,67.75
2023-02-27T11:44:53.830Z,67.67
2023-02-27T11:47:24.859Z,68.47
2023-02-27T11:50:06.528Z,66.90
2023-02-27T11:52:53.113Z,66.63
2023-02-27T11:55:25.734Z,64.25
2023-02-27T11:58:05.203Z,63.61
2023-02-27T12:00:36.550Z,62.41
2023-02-27T12:03:21.358Z,61.27
2023-02-27T12:05:50.273Z,61.89
2023-02-27T12:08:27.744Z,62.06
2023-02-27T12:10:55.586Z,61.15
2023-02-27T12:13:31.583Z,60.36
2023-02-27T12:16:10.267Z,60.79
2023-02-27T12:18:36.586Z,60.46
2023-02-27T12:21:02.904Z,60.45
2023-02-27T12:23:35.373Z,59.31
2023-02-27T12:26:05.729Z,59.46
2023-02-27T12:28:50.862Z,59.56
2023-02-27T12:31:20.237Z,58.95
2023-02-27T12:33:53.355Z,57.93
2023-02-27T12:36:19.739Z,58.00
2023-02-27T12:38:46.124Z,58.00
2023-02-27T12:41:19.004Z,57.97
2023-02-27T12:44:04.074Z,57.99
2023-02-27T12:47:08.992Z,56.47
2023-02-27T12:49:38.162Z,55.87
2023-02-27T12:52:07.420Z,57.11
2023-02-27T12:54:46.537Z,58.67
2023-02-27T12:57:31.874Z,59.19
2023-02-27T13:00:01.212Z,58.89
2023-02-27T13:02:36.618Z,56.03
2023-02-27T13:05:24.053Z,54.44
2023-02-27T13:08:09.396Z,54.58
2023-02-27T13:10:54.253Z,54.14
2023-02-27T13:13:26.069Z,54.53
2023-02-27T13:15:59.277Z,55.00
2023-02-27T13:18:48.169Z,53.86
2023-02-27T13:21:17.332Z,55.02
2023-02-27T13:23:49.846Z,54.47
2023-02-27T13:26:23.105Z,53.33
2023-02-27T13:28:50.328Z,53.21
2023-02-27T13:31:27.043Z,53.33
2023-02-27T13:34:04.542Z,53.77
2023-02-27T13:36:51.107Z,53.69
2023-02-27T13:39:56.254Z,53.18
2023-02-27T13:42:28.875Z,54.53
2023-02-27T13:44:56.442Z,55.17
2023-02-27T13:47:40.302Z,55.22
2023-02-27T13:50:18.884Z,55.00
2023-02-27T13:52:46.764Z,55.61
2023-02-27T13:55:27.114Z,55.12
2023-02-27T13:57:57.563Z,54.44
2023-02-27T14:00:25.323Z,53.88
2023-02-27T14:03:10.647Z,53.89
2023-02-27T14:05:39.153Z,54.84
2023-02-27T14:08:10.326Z,55.07
2023-02-27T14:10:37.576Z,55.09
2023-02-27T14:13:05.154Z,55.69
2023-02-27T14:15:31.940Z,55.09
2023-02-27T14:18:12.374Z,55.83
2023-02-27T14:20:42.137Z,55.94
2023-02-27T14:23:17.510Z,56.46
2023-02-27T14:25:54.549Z,56.39
2023-02-27T14:28:39.845Z,56.61
2023-02-27T14:31:08.745Z,55.37
2023-02-27T14:33:43.819Z,55.68
2023-02-27T14:36:17.075Z,54.69
2023-02-27T14:38:43.604Z,56.06
2023-02-27T14:41:14.963Z,55.59
2023-02-27T14:43:44.873Z,56.14
2023-02-27T14:46:14.402Z,55.27
2023-02-27T14:48:40.842Z,55.25
2023-02-27T14:51:07.395Z,55.64
2023-02-27T14:53:34.708Z,56.29
2023-02-27T14:56:00.996Z,56.10
2023-02-27T14:58:28.274Z,56.58
2023-02-27T15:01:03.325Z,56.25
2023-02-27T15:03:34.608Z,56.71
2023-02-27T15:06:02.030Z,57.29
2023-02-27T15:08:29.579Z,56.60
2023-02-27T15:10:57.233Z,56.29
2023-02-27T15:13:29.835Z,56.71
2023-02-27T15:16:16.745Z,56.82
2023-02-27T15:18:45.567Z,57.36
2023-02-27T15:21:14.750Z,56.98
2023-02-27T15:23:41.320Z,56.70
2023-02-27T15:26:12.687Z,56.57
2023-02-27T15:28:39.092Z,55.80
2023-02-27T15:31:08.194Z,56.30
2023-02-27T15:33:34.779Z,55.90
2023-02-27T15:36:01.490Z,55.61
2023-02-27T15:38:32.761Z,55.75
2023-02-27T15:41:00.419Z,55.73
2023-02-27T15:43:27.697Z,54.94
2023-02-27T15:45:54.682Z,55.52
2023-02-27T15:48:21.718Z,55.14
2023-02-27T15:50:58.464Z,55.37
2023-02-27T15:53:26.298Z,55.87
2023-02-27T15:55:53.982Z,56.22
2023-02-27T15:58:24.652Z,56.77
2023-02-27T16:01:02.131Z,58.62
2023-02-27T16:03:33.051Z,59.53
2023-02-27T16:06:00.298Z,60.27
2023-02-27T16:08:28.290Z,60.75
2023-02-27T16:10:54.762Z,60.25
2023-02-27T16:13:40.082Z,61.35
2023-02-27T16:16:28.179Z,61.50
2023-02-27T16:18:56.798Z,62.46
2023-02-27T16:21:27.227Z,61.82
2023-02-27T16:23:54.113Z,62.16
2023-02-27T16:26:20.855Z,62.30
2023-02-27T16:29:00.083Z,62.54
2023-02-27T16:31:39.609Z,63.31
2023-02-27T16:34:26.177Z,63.43
2023-02-27T16:36:58.723Z,63.37
2023-02-27T16:39:25.196Z,63.85
2023-02-27T16:41:52.293Z,63.32
2023-02-27T16:44:18.583Z,63.38
2023-02-27T16:46:45.066Z,63.76
2023-02-27T16:49:22.386Z,64.69
2023-02-27T16:51:48.876Z,64.83
2023-02-27T16:54:16.542Z,64.28
2023-02-27T16:56:44.440Z,65.10
2023-02-27T16:59:22.700Z,64.88
2023-02-27T17:01:49.513Z,65.28
2023-02-27T17:04:25.285Z,65.41
2023-02-27T17:06:53.186Z,65.67
2023-02-27T17:09:19.650Z,65.09
2023-02-27T17:11:46.092Z,65.14
2023-02-27T17:14:12.670Z,65.49
2023-02-27T17:16:39.190Z,65.61
2023-02-27T17:19:05.934Z,65.87
2023-02-27T17:21:35.135Z,66.19
2023-02-27T17:24:02.202Z,67.15
2023-02-27T17:26:29.368Z,66.84
2023-02-27T17:28:56.406Z,67.11
2023-02-27T17:31:24.125Z,67.13
2023-02-27T17:33:51.110Z,67.49
2023-02-27T17:36:18.023Z,67.59
2023-02-27T17:38:44.374Z,68.15
2023-02-27T17:41:12.185Z,68.08
2023-02-27T17:43:39.012Z,68.40
2023-02-27T17:46:07.969Z,68.06
2023-02-27T17:48:35.510Z,68.56
2023-02-27T17:51:05.484Z,68.54
2023-02-27T17:53:31.832Z,68.57
2023-02-27T17:55:58.205Z,68.66
2023-02-27T17:58:24.566Z,69.13
2023-02-27T18:00:50.874Z,69.21
2023-02-27T18:03:17.236Z,68.61
2023-02-27T18:05:52.903Z,68.87
2023-02-27T18:08:19.560Z,69.26
2023-02-27T18:10:46.792Z,69.39
2023-02-27T18:13:13.160Z,68.81
2023-02-27T18:15:39.524Z,69.09
2023-02-27T18:18:05.863Z,69.35
2023-02-27T18:20:32.207Z,69.17
2023-02-27T18:22:58.523Z,68.95
2023-02-27T18:25:24.921Z,68.86
2023-02-27T18:27:51.294Z,69.71
2023-02-27T18:30:19.432Z,69.87
2023-02-27T18:32:45.827Z,69.41
2023-02-27T18:35:12.503Z,69.90
2023-02-27T18:37:39.109Z,69.91
2023-02-27T18:40:06.063Z,69.64
2023-02-27T18:42:32.715Z,70.01
2023-02-27T18:44:59.147Z,69.67
2023-02-27T18:47:25.726Z,69.60
2023-02-27T18:49:52.088Z,70.09
2023-02-27T18:52:18.530Z,70.00
2023-02-27T18:54:44.835Z,69.23
2023-02-27T18:57:11.185Z,69.49
2023-02-27T18:59:37.731Z,69.23
2023-02-27T19:02:04.265Z,68.63
2023-02-27T19:04:33.642Z,68.83
2023-02-27T19:07:00.352Z,68.76
2023-02-27T19:09:32.566Z,69.37
2023-02-27T19:11:59.260Z,69.68
2023-02-27T19:14:25.896Z,69.50
2023-02-27T19:16:52.313Z,68.95
2023-02-27T19:19:19.018Z,68.79
2023-02-27T19:21:47.829Z,69.22
2023-02-27T19:24:16.517Z,68.71
2023-02-27T19:26:42.839Z,68.77
2023-02-27T19:29:09.188Z,69.21
2023-02-27T19:31:35.508Z,69.83
2023-02-27T19:34:02.001Z,68.96
2023-02-27T19:36:29.704Z,69.59
2023-02-27T19:38:56.799Z,69.22
2023-02-27T19:41:23.840Z,69.87
2023-02-27T19:43:50.948Z,68.93
2023-02-27T19:46:23.671Z,69.43
2023-02-27T19:48:50.641Z,69.94
2023-02-27T19:51:16.926Z,69.21
2023-02-27T19:53:45.866Z,70.04
2023-02-27T19:56:13.315Z,70.13
2023-02-27T19:58:39.810Z,70.48
2023-02-27T20:01:06.691Z,70.59
2023-02-27T20:03:33.332Z,70.67
2023-02-27T20:05:59.895Z,70.39
2023-02-27T20:08:33.078Z,70.13
2023-02-27T20:11:00.466Z,70.02
2023-02-27T20:13:27.432Z,70.50
2023-02-27T20:15:57.729Z,71.40
2023-02-27T20:18:24.745Z,71.03
2023-02-27T20:21:01.706Z,71.00
2023-02-27T20:23:28.153Z,70.88
2023-02-27T20:25:54.650Z,70.51
2023-02-27T20:28:21.289Z,70.66
2023-02-27T20:30:47.665Z,70.96
2023-02-27T20:33:14.026Z,70.54
2023-02-27T20:35:40.604Z,70.75
2023-02-27T20:38:07.745Z,71.14
2023-02-27T20:40:34.169Z,71.74
2023-02-27T20:43:00.539Z,71.51
2023-02-27T20:45:28.176Z,71.02
2023-02-27T20:47:55.134Z,71.60
2023-02-27T20:50:21.725Z,71.10
2023-02-27T20:52:48.056Z,71.10
2023-02-27T20:55:14.382Z,70.75
2023-02-27T20:57:40.857Z,71.11
2023-02-27T21:00:11.706Z,71.01
2023-02-27T21:02:38.004Z,70.86
2023-02-27T21:05:04.609Z,70.87
2023-02-27T21:07:31.117Z,70.99
2023-02-27T21:09:57.457Z,70.95
2023-02-27T21:12:23.807Z,71.23
2023-02-27T21:14:50.161Z,70.58
2023-02-27T21:17:16.631Z,69.85
2023-02-27T21:19:43.049Z,70.75
2023-02-27T21:22:11.113Z,70.82
2023-02-27T21:24:37.777Z,70.71
2023-02-27T21:27:04.087Z,70.84
2023-02-27T21:29:30.375Z,71.18
2023-02-27T21:31:56.904Z,71.36
2023-02-27T21:34:24.749Z,71.21
2023-02-27T21:36:52.083Z,71.63
2023-02-27T21:39:20.086Z,71.00
2023-02-27T21:41:46.935Z,71.42
2023-02-27T21:44:14.921Z,71.13
2023-02-27T21:46:41.286Z,70.88
2023-02-27T21:49:10.033Z,70.41
2023-02-27T21:51:40.904Z,70.29
2023-02-27T21:54:09.069Z,70.23
2023-02-27T21:56:35.514Z,70.16
2023-02-27T21:59:02.132Z,69.99
2023-02-27T22:01:29.341Z,70.12
2023-02-27T22:03:56.656Z,70.27
2023-02-27T22:06:23.922Z,70.15
2023-02-27T22:08:57.520Z,70.84
2023-02-27T22:11:24.426Z,71.27
2023-02-27T22:13:50.781Z,71.47
2023-02-27T22:16:17.684Z,71.78
2023-02-27T22:18:44.239Z,71.38
2023-02-27T22:21:12.788Z,71.35
2023-02-27T22:23:39.161Z,71.31
2023-02-27T22:26:09.866Z,70.81
2023-02-27T22:28:38.936Z,71.24
2023-02-27T22:31:25.594Z,70.73
2023-02-27T22:33:53.829Z,70.64
2023-02-27T22:36:24.227Z,70.75
2023-02-27T22:38:50.925Z,71.29
2023-02-27T22:41:22.022Z,71.50
2023-02-27T22:43:48.442Z,71.11
2023-02-27T22:46:16.929Z,70.90
2023-02-27T22:48:43.348Z,71.25
2023-02-27T22:51:14.374Z,71.12
2023-02-27T22:53:41.661Z,70.79
2023-02-27T22:56:09.715Z,70.77
2023-02-27T22:58:39.282Z,70.58
2023-02-27T23:01:14.815Z,71.14
2023-02-27T23:03:41.576Z,70.49
2023-02-27T23:06:08.710Z,71.32
2023-02-27T23:08:35.355Z,71.06
2023-02-27T23:11:01.684Z,71.74
2023-02-27T23:13:28.026Z,71.29
2023-02-27T23:15:54.793Z,71.72
2023-02-27T23:18:21.173Z,71.11
2023-02-27T23:20:47.493Z,71.40
2023-02-27T23:23:13.849Z,70.87
2023-02-27T23:25:40.176Z,71.17
2023-02-27T23:28:06.714Z,71.38
2023-02-27T23:30:33.489Z,70.87
2023-02-27T23:32:59.821Z,71.28
2023-02-27T23:35:26.675Z,71.77
2023-02-27T23:37:54.159Z,71.13
2023-02-27T23:40:21.760Z,71.74
2023-02-27T23:42:48.097Z,71.39
2023-02-27T23:45:23.490Z,71.70
2023-02-27T23:47:54.063Z,71.45
2023-02-27T23:50:28.320Z,71.18
2023-02-27T23:52:55.433Z,71.63
2023-02-27T23:55:21.900Z,70.70
2023-02-27T23:57:51.550Z,70.90
